sensor_id;sensor_type;location;lat;lon;timestamp;P1;durP1;ratioP1;P2;durP2;ratioP2
33696;SDS011;20031;43.416;23.232;2023-05-18T00:01:07;12.20;;;6.15;;
33696;SDS011;20031;43.416;23.232;2023-05-18T00:03:32;14.00;;;5.72;;
33696;SDS011;20031;43.416;23.232;2023-05-18T00:05:58;13.15;;;5.90;;
33696;SDS011;20031;43.416;23.232;2023-05-18T00:08:28;11.95;;;5.57;;
33696;SDS011;20031;43.416;23.232;2023-05-18T00:11:00;11.30;;;5.97;;
33696;SDS011;20031;43.416;23.232;2023-05-18T00:13:27;11.82;;;6.47;;
33696;SDS011;20031;43.416;23.232;2023-05-18T00:15:52;12.23;;;6.35;;
33696;SDS011;20031;43.416;23.232;2023-05-18T00:18:18;11.50;;;6.25;;
33696;SDS011;20031;43.416;23.232;2023-05-18T00:20:48;13.07;;;6.35;;
33696;SDS011;20031;43.416;23.232;2023-05-18T00:23:14;19.33;;;6.40;;
33696;SDS011;20031;43.416;23.232;2023-05-18T00:25:40;10.73;;;5.40;;
33696;SDS011;20031;43.416;23.232;2023-05-18T00:28:06;13.70;;;5.25;;
33696;SDS011;20031;43.416;23.232;2023-05-18T00:30:31;11.90;;;5.88;;
33696;SDS011;20031;43.416;23.232;2023-05-18T00:32:57;7.63;;;5.38;;
33696;SDS011;20031;43.416;23.232;2023-05-18T00:35:22;11.82;;;5.50;;
33696;SDS011;20031;43.416;23.232;2023-05-18T00:37:47;9.73;;;5.63;;
33696;SDS011;20031;43.416;23.232;2023-05-18T00:40:13;8.88;;;4.95;;
33696;SDS011;20031;43.416;23.232;2023-05-18T00:42:38;11.02;;;5.32;;
33696;SDS011;20031;43.416;23.232;2023-05-18T00:45:04;8.05;;;4.80;;
33696;SDS011;20031;43.416;23.232;2023-05-18T00:47:30;11.70;;;5.47;;
33696;SDS011;20031;43.416;23.232;2023-05-18T00:49:55;11.20;;;5.82;;
33696;SDS011;20031;43.416;23.232;2023-05-18T00:52:21;6.82;;;4.93;;
33696;SDS011;20031;43.416;23.232;2023-05-18T00:54:47;12.13;;;5.70;;
33696;SDS011;20031;43.416;23.232;2023-05-18T00:57:13;18.55;;;6.32;;
33696;SDS011;20031;43.416;23.232;2023-05-18T00:59:38;8.35;;;6.00;;
33696;SDS011;20031;43.416;23.232;2023-05-18T01:02:05;15.40;;;7.68;;
33696;SDS011;20031;43.416;23.232;2023-05-18T01:04:31;17.23;;;7.28;;
33696;SDS011;20031;43.416;23.232;2023-05-18T01:06:56;13.73;;;7.03;;
33696;SDS011;20031;43.416;23.232;2023-05-18T01:09:22;10.52;;;6.57;;
33696;SDS011;20031;43.416;23.232;2023-05-18T01:25:49;23.67;;;10.85;;
33696;SDS011;20031;43.416;23.232;2023-05-18T01:28:19;19.33;;;9.05;;
33696;SDS011;20031;43.416;23.232;2023-05-18T01:30:50;19.50;;;9.23;;
33696;SDS011;20031;43.416;23.232;2023-05-18T01:33:16;18.90;;;7.55;;
33696;SDS011;20031;43.416;23.232;2023-05-18T01:35:42;14.82;;;7.53;;
33696;SDS011;20031;43.416;23.232;2023-05-18T01:38:15;15.50;;;7.65;;
33696;SDS011;20031;43.416;23.232;2023-05-18T01:41:05;19.35;;;7.45;;
33696;SDS011;20031;43.416;23.232;2023-05-18T01:46:39;14.35;;;7.03;;
33696;SDS011;20031;43.416;23.232;2023-05-18T01:52:18;19.77;;;7.28;;
33696;SDS011;20031;43.416;23.232;2023-05-18T01:54:52;21.95;;;6.40;;
33696;SDS011;20031;43.416;23.232;2023-05-18T01:57:20;17.17;;;6.03;;
33696;SDS011;20031;43.416;23.232;2023-05-18T01:59:49;14.57;;;6.05;;
33696;SDS011;20031;43.416;23.232;2023-05-18T02:02:15;12.90;;;5.85;;
33696;SDS011;20031;43.416;23.232;2023-05-18T02:04:41;14.82;;;5.75;;
33696;SDS011;20031;43.416;23.232;2023-05-18T02:07:06;13.20;;;4.55;;
33696;SDS011;20031;43.416;23.232;2023-05-18T02:09:32;20.70;;;5.35;;
33696;SDS011;20031;43.416;23.232;2023-05-18T02:11:57;14.55;;;5.07;;
33696;SDS011;20031;43.416;23.232;2023-05-18T02:14:23;13.60;;;5.43;;
33696;SDS011;20031;43.416;23.232;2023-05-18T02:16:49;11.80;;;5.68;;
33696;SDS011;20031;43.416;23.232;2023-05-18T02:19:17;11.65;;;5.53;;
33696;SDS011;20031;43.416;23.232;2023-05-18T02:21:45;12.55;;;5.72;;
33696;SDS011;20031;43.416;23.232;2023-05-18T02:24:11;15.18;;;5.35;;
33696;SDS011;20031;43.416;23.232;2023-05-18T02:26:36;178.88;;;14.65;;
33696;SDS011;20031;43.416;23.232;2023-05-18T02:29:03;34.92;;;6.25;;
33696;SDS011;20031;43.416;23.232;2023-05-18T02:31:30;25.38;;;6.25;;
33696;SDS011;20031;43.416;23.232;2023-05-18T02:33:56;11.68;;;5.38;;
33696;SDS011;20031;43.416;23.232;2023-05-18T02:36:22;13.60;;;5.32;;
33696;SDS011;20031;43.416;23.232;2023-05-18T02:38:47;16.73;;;5.72;;
33696;SDS011;20031;43.416;23.232;2023-05-18T02:41:13;15.13;;;5.72;;
33696;SDS011;20031;43.416;23.232;2023-05-18T02:43:39;16.63;;;5.10;;
33696;SDS011;20031;43.416;23.232;2023-05-18T02:46:04;14.77;;;5.60;;
33696;SDS011;20031;43.416;23.232;2023-05-18T02:48:30;14.60;;;5.90;;
33696;SDS011;20031;43.416;23.232;2023-05-18T02:50:56;13.07;;;5.68;;
33696;SDS011;20031;43.416;23.232;2023-05-18T02:53:22;13.20;;;5.65;;
33696;SDS011;20031;43.416;23.232;2023-05-18T02:55:48;15.45;;;5.95;;
33696;SDS011;20031;43.416;23.232;2023-05-18T02:58:18;14.40;;;5.80;;
33696;SDS011;20031;43.416;23.232;2023-05-18T03:00:45;22.45;;;7.53;;
33696;SDS011;20031;43.416;23.232;2023-05-18T03:03:12;19.83;;;7.47;;
33696;SDS011;20031;43.416;23.232;2023-05-18T03:05:39;15.95;;;6.75;;
33696;SDS011;20031;43.416;23.232;2023-05-18T03:08:05;17.70;;;8.07;;
33696;SDS011;20031;43.416;23.232;2023-05-18T03:10:30;18.15;;;8.20;;
33696;SDS011;20031;43.416;23.232;2023-05-18T03:12:56;16.98;;;6.35;;
33696;SDS011;20031;43.416;23.232;2023-05-18T03:15:21;21.75;;;7.45;;
33696;SDS011;20031;43.416;23.232;2023-05-18T03:17:47;22.02;;;6.50;;
33696;SDS011;20031;43.416;23.232;2023-05-18T03:20:13;16.17;;;6.47;;
33696;SDS011;20031;43.416;23.232;2023-05-18T03:22:39;17.13;;;6.47;;
33696;SDS011;20031;43.416;23.232;2023-05-18T03:25:05;16.65;;;7.50;;
33696;SDS011;20031;43.416;23.232;2023-05-18T03:27:31;17.83;;;6.13;;
33696;SDS011;20031;43.416;23.232;2023-05-18T03:29:57;19.23;;;6.88;;
33696;SDS011;20031;43.416;23.232;2023-05-18T03:32:23;13.07;;;6.40;;
33696;SDS011;20031;43.416;23.232;2023-05-18T03:34:49;16.92;;;6.63;;
33696;SDS011;20031;43.416;23.232;2023-05-18T03:37:17;15.38;;;6.55;;
33696;SDS011;20031;43.416;23.232;2023-05-18T03:39:42;11.88;;;6.18;;
33696;SDS011;20031;43.416;23.232;2023-05-18T03:42:07;10.23;;;5.25;;
33696;SDS011;20031;43.416;23.232;2023-05-18T03:44:33;11.23;;;5.57;;
33696;SDS011;20031;43.416;23.232;2023-05-18T03:46:59;13.23;;;6.10;;
33696;SDS011;20031;43.416;23.232;2023-05-18T03:49:24;23.55;;;6.70;;
33696;SDS011;20031;43.416;23.232;2023-05-18T03:51:49;17.17;;;6.05;;
33696;SDS011;20031;43.416;23.232;2023-05-18T03:54:18;17.85;;;7.25;;
33696;SDS011;20031;43.416;23.232;2023-05-18T03:56:44;13.52;;;7.30;;
33696;SDS011;20031;43.416;23.232;2023-05-18T03:59:11;12.82;;;6.47;;
33696;SDS011;20031;43.416;23.232;2023-05-18T04:01:36;11.65;;;6.10;;
33696;SDS011;20031;43.416;23.232;2023-05-18T04:04:06;8.13;;;5.75;;
33696;SDS011;20031;43.416;23.232;2023-05-18T04:06:41;16.25;;;6.57;;
33696;SDS011;20031;43.416;23.232;2023-05-18T04:09:13;11.93;;;6.72;;
33696;SDS011;20031;43.416;23.232;2023-05-18T04:11:41;16.63;;;7.00;;
33696;SDS011;20031;43.416;23.232;2023-05-18T04:14:07;17.13;;;6.60;;
33696;SDS011;20031;43.416;23.232;2023-05-18T04:16:35;17.00;;;6.60;;
33696;SDS011;20031;43.416;23.232;2023-05-18T04:19:00;12.25;;;6.53;;
33696;SDS011;20031;43.416;23.232;2023-05-18T04:21:28;10.25;;;7.03;;
33696;SDS011;20031;43.416;23.232;2023-05-18T04:23:59;14.13;;;6.70;;
33696;SDS011;20031;43.416;23.232;2023-05-18T04:26:29;13.07;;;6.20;;
33696;SDS011;20031;43.416;23.232;2023-05-18T04:28:55;15.00;;;6.55;;
33696;SDS011;20031;43.416;23.232;2023-05-18T04:31:24;15.07;;;7.18;;
33696;SDS011;20031;43.416;23.232;2023-05-18T04:33:53;12.48;;;7.22;;
33696;SDS011;20031;43.416;23.232;2023-05-18T04:36:22;15.90;;;7.75;;
33696;SDS011;20031;43.416;23.232;2023-05-18T04:38:49;21.25;;;7.47;;
33696;SDS011;20031;43.416;23.232;2023-05-18T04:41:18;12.80;;;6.40;;
33696;SDS011;20031;43.416;23.232;2023-05-18T04:43:46;14.23;;;7.10;;
33696;SDS011;20031;43.416;23.232;2023-05-18T04:46:12;10.93;;;6.55;;
33696;SDS011;20031;43.416;23.232;2023-05-18T04:48:38;17.02;;;7.00;;
33696;SDS011;20031;43.416;23.232;2023-05-18T04:51:04;14.40;;;7.20;;
33696;SDS011;20031;43.416;23.232;2023-05-18T04:53:30;15.88;;;7.00;;
33696;SDS011;20031;43.416;23.232;2023-05-18T04:55:57;10.70;;;6.60;;
33696;SDS011;20031;43.416;23.232;2023-05-18T04:58:24;14.13;;;7.45;;
33696;SDS011;20031;43.416;23.232;2023-05-18T05:00:51;18.65;;;8.13;;
33696;SDS011;20031;43.416;23.232;2023-05-18T05:03:17;14.73;;;7.50;;
33696;SDS011;20031;43.416;23.232;2023-05-18T05:05:42;12.10;;;6.47;;
33696;SDS011;20031;43.416;23.232;2023-05-18T05:08:08;14.00;;;6.35;;
33696;SDS011;20031;43.416;23.232;2023-05-18T05:10:34;15.07;;;5.95;;
33696;SDS011;20031;43.416;23.232;2023-05-18T05:12:59;12.05;;;6.28;;
33696;SDS011;20031;43.416;23.232;2023-05-18T05:15:25;12.57;;;6.30;;
33696;SDS011;20031;43.416;23.232;2023-05-18T05:17:50;14.18;;;5.57;;
33696;SDS011;20031;43.416;23.232;2023-05-18T05:20:16;10.23;;;5.82;;
33696;SDS011;20031;43.416;23.232;2023-05-18T05:22:41;17.23;;;6.35;;
33696;SDS011;20031;43.416;23.232;2023-05-18T05:25:07;13.43;;;5.65;;
33696;SDS011;20031;43.416;23.232;2023-05-18T05:27:33;13.90;;;6.00;;
33696;SDS011;20031;43.416;23.232;2023-05-18T05:29:58;23.88;;;11.15;;
33696;SDS011;20031;43.416;23.232;2023-05-18T05:32:24;12.82;;;7.53;;
33696;SDS011;20031;43.416;23.232;2023-05-18T05:34:50;13.43;;;6.75;;
33696;SDS011;20031;43.416;23.232;2023-05-18T05:37:15;12.23;;;5.65;;
33696;SDS011;20031;43.416;23.232;2023-05-18T05:39:42;13.80;;;4.97;;
33696;SDS011;20031;43.416;23.232;2023-05-18T05:42:07;12.30;;;5.53;;
33696;SDS011;20031;43.416;23.232;2023-05-18T05:44:33;9.80;;;5.28;;
33696;SDS011;20031;43.416;23.232;2023-05-18T05:46:58;15.35;;;5.43;;
33696;SDS011;20031;43.416;23.232;2023-05-18T05:49:24;15.93;;;5.25;;
33696;SDS011;20031;43.416;23.232;2023-05-18T05:51:50;11.07;;;5.80;;
33696;SDS011;20031;43.416;23.232;2023-05-18T05:54:16;12.15;;;5.32;;
33696;SDS011;20031;43.416;23.232;2023-05-18T05:56:41;13.23;;;5.82;;
33696;SDS011;20031;43.416;23.232;2023-05-18T05:59:07;12.48;;;6.05;;
33696;SDS011;20031;43.416;23.232;2023-05-18T06:01:33;12.93;;;5.55;;
33696;SDS011;20031;43.416;23.232;2023-05-18T06:03:58;10.30;;;5.93;;
33696;SDS011;20031;43.416;23.232;2023-05-18T06:06:25;16.67;;;6.72;;
33696;SDS011;20031;43.416;23.232;2023-05-18T06:08:50;10.88;;;5.97;;
33696;SDS011;20031;43.416;23.232;2023-05-18T06:11:15;8.57;;;5.72;;
33696;SDS011;20031;43.416;23.232;2023-05-18T06:13:41;14.35;;;5.93;;
33696;SDS011;20031;43.416;23.232;2023-05-18T06:16:06;19.13;;;6.03;;
33696;SDS011;20031;43.416;23.232;2023-05-18T06:18:32;12.93;;;6.63;;
33696;SDS011;20031;43.416;23.232;2023-05-18T06:20:58;11.43;;;5.43;;
33696;SDS011;20031;43.416;23.232;2023-05-18T06:23:24;13.23;;;5.70;;
33696;SDS011;20031;43.416;23.232;2023-05-18T06:25:50;10.00;;;5.30;;
33696;SDS011;20031;43.416;23.232;2023-05-18T06:28:15;10.88;;;6.18;;
33696;SDS011;20031;43.416;23.232;2023-05-18T06:30:41;9.40;;;5.50;;
33696;SDS011;20031;43.416;23.232;2023-05-18T06:33:07;10.05;;;4.95;;
33696;SDS011;20031;43.416;23.232;2023-05-18T06:35:33;11.10;;;5.35;;
33696;SDS011;20031;43.416;23.232;2023-05-18T06:37:58;12.02;;;5.40;;
33696;SDS011;20031;43.416;23.232;2023-05-18T06:40:24;8.85;;;4.97;;
33696;SDS011;20031;43.416;23.232;2023-05-18T06:42:49;18.13;;;6.07;;
33696;SDS011;20031;43.416;23.232;2023-05-18T06:45:15;15.82;;;5.30;;
33696;SDS011;20031;43.416;23.232;2023-05-18T06:47:41;13.30;;;6.78;;
33696;SDS011;20031;43.416;23.232;2023-05-18T06:50:07;14.20;;;5.90;;
33696;SDS011;20031;43.416;23.232;2023-05-18T06:52:33;17.42;;;6.18;;
33696;SDS011;20031;43.416;23.232;2023-05-18T06:54:58;11.75;;;5.70;;
33696;SDS011;20031;43.416;23.232;2023-05-18T06:57:25;15.63;;;6.43;;
33696;SDS011;20031;43.416;23.232;2023-05-18T06:59:51;12.95;;;5.78;;
33696;SDS011;20031;43.416;23.232;2023-05-18T07:02:18;11.52;;;5.47;;
33696;SDS011;20031;43.416;23.232;2023-05-18T07:04:45;12.50;;;6.05;;
33696;SDS011;20031;43.416;23.232;2023-05-18T07:07:12;17.17;;;6.22;;
33696;SDS011;20031;43.416;23.232;2023-05-18T07:09:37;14.02;;;6.45;;
33696;SDS011;20031;43.416;23.232;2023-05-18T07:12:03;10.25;;;5.50;;
33696;SDS011;20031;43.416;23.232;2023-05-18T07:14:28;12.30;;;4.82;;
33696;SDS011;20031;43.416;23.232;2023-05-18T07:16:54;14.90;;;5.97;;
33696;SDS011;20031;43.416;23.232;2023-05-18T07:19:19;20.42;;;6.72;;
33696;SDS011;20031;43.416;23.232;2023-05-18T07:21:45;21.70;;;6.60;;
33696;SDS011;20031;43.416;23.232;2023-05-18T07:24:10;15.65;;;5.15;;
33696;SDS011;20031;43.416;23.232;2023-05-18T07:26:36;11.07;;;5.10;;
33696;SDS011;20031;43.416;23.232;2023-05-18T07:29:01;16.48;;;5.55;;
33696;SDS011;20031;43.416;23.232;2023-05-18T07:31:27;16.58;;;6.00;;
33696;SDS011;20031;43.416;23.232;2023-05-18T07:33:52;13.38;;;5.43;;
33696;SDS011;20031;43.416;23.232;2023-05-18T07:36:18;16.40;;;6.00;;
33696;SDS011;20031;43.416;23.232;2023-05-18T07:38:43;12.25;;;5.32;;
33696;SDS011;20031;43.416;23.232;2023-05-18T07:41:09;14.68;;;5.20;;
33696;SDS011;20031;43.416;23.232;2023-05-18T07:43:34;20.90;;;5.47;;
33696;SDS011;20031;43.416;23.232;2023-05-18T07:46:00;20.77;;;5.43;;
33696;SDS011;20031;43.416;23.232;2023-05-18T07:48:25;12.45;;;5.25;;
33696;SDS011;20031;43.416;23.232;2023-05-18T07:50:51;14.88;;;5.10;;
33696;SDS011;20031;43.416;23.232;2023-05-18T07:53:18;14.52;;;5.47;;
33696;SDS011;20031;43.416;23.232;2023-05-18T07:55:43;20.60;;;5.90;;
33696;SDS011;20031;43.416;23.232;2023-05-18T07:58:09;10.15;;;4.10;;
33696;SDS011;20031;43.416;23.232;2023-05-18T08:00:35;15.60;;;4.45;;
33696;SDS011;20031;43.416;23.232;2023-05-18T08:03:01;9.43;;;4.60;;
33696;SDS011;20031;43.416;23.232;2023-05-18T08:05:26;11.32;;;4.70;;
33696;SDS011;20031;43.416;23.232;2023-05-18T08:07:52;13.18;;;4.72;;
33696;SDS011;20031;43.416;23.232;2023-05-18T08:10:17;9.32;;;4.20;;
33696;SDS011;20031;43.416;23.232;2023-05-18T08:12:43;11.90;;;3.97;;
33696;SDS011;20031;43.416;23.232;2023-05-18T08:15:08;8.80;;;4.15;;
33696;SDS011;20031;43.416;23.232;2023-05-18T08:17:35;9.82;;;4.60;;
33696;SDS011;20031;43.416;23.232;2023-05-18T08:20:01;13.27;;;4.53;;
33696;SDS011;20031;43.416;23.232;2023-05-18T08:22:28;10.38;;;4.20;;
33696;SDS011;20031;43.416;23.232;2023-05-18T08:24:54;12.63;;;4.25;;
33696;SDS011;20031;43.416;23.232;2023-05-18T08:27:20;12.77;;;4.00;;
33696;SDS011;20031;43.416;23.232;2023-05-18T08:29:46;11.05;;;4.72;;
33696;SDS011;20031;43.416;23.232;2023-05-18T08:32:11;28.13;;;7.80;;
33696;SDS011;20031;43.416;23.232;2023-05-18T08:34:37;11.38;;;4.18;;
33696;SDS011;20031;43.416;23.232;2023-05-18T08:37:02;14.05;;;4.75;;
33696;SDS011;20031;43.416;23.232;2023-05-18T08:39:28;6.15;;;3.58;;
33696;SDS011;20031;43.416;23.232;2023-05-18T08:42:06;6.85;;;2.95;;
33696;SDS011;20031;43.416;23.232;2023-05-18T08:44:45;9.25;;;3.55;;
33696;SDS011;20031;43.416;23.232;2023-05-18T08:47:16;19.10;;;6.13;;
33696;SDS011;20031;43.416;23.232;2023-05-18T08:49:41;15.15;;;5.80;;
33696;SDS011;20031;43.416;23.232;2023-05-18T08:52:08;12.13;;;4.88;;
33696;SDS011;20031;43.416;23.232;2023-05-18T08:54:40;13.80;;;4.35;;
33696;SDS011;20031;43.416;23.232;2023-05-18T08:57:06;17.17;;;5.07;;
33696;SDS011;20031;43.416;23.232;2023-05-18T08:59:35;11.18;;;3.40;;
33696;SDS011;20031;43.416;23.232;2023-05-18T09:02:05;11.32;;;4.57;;
33696;SDS011;20031;43.416;23.232;2023-05-18T09:04:31;11.95;;;3.88;;
33696;SDS011;20031;43.416;23.232;2023-05-18T09:06:58;13.90;;;4.40;;
33696;SDS011;20031;43.416;23.232;2023-05-18T09:09:26;9.40;;;3.80;;
33696;SDS011;20031;43.416;23.232;2023-05-18T09:11:53;14.73;;;5.47;;
33696;SDS011;20031;43.416;23.232;2023-05-18T09:14:20;22.17;;;5.82;;
33696;SDS011;20031;43.416;23.232;2023-05-18T09:16:49;26.50;;;8.23;;
33696;SDS011;20031;43.416;23.232;2023-05-18T09:19:18;24.80;;;10.32;;
33696;SDS011;20031;43.416;23.232;2023-05-18T09:21:44;17.05;;;6.88;;
33696;SDS011;20031;43.416;23.232;2023-05-18T09:24:10;13.35;;;5.18;;
33696;SDS011;20031;43.416;23.232;2023-05-18T09:26:36;18.08;;;8.10;;
33696;SDS011;20031;43.416;23.232;2023-05-18T09:29:02;15.65;;;5.25;;
33696;SDS011;20031;43.416;23.232;2023-05-18T09:31:40;11.75;;;6.00;;
33696;SDS011;20031;43.416;23.232;2023-05-18T09:34:05;14.32;;;4.20;;
33696;SDS011;20031;43.416;23.232;2023-05-18T09:36:31;8.07;;;4.32;;
33696;SDS011;20031;43.416;23.232;2023-05-18T09:38:58;14.02;;;4.60;;
33696;SDS011;20031;43.416;23.232;2023-05-18T09:41:24;23.55;;;7.63;;
33696;SDS011;20031;43.416;23.232;2023-05-18T09:43:51;15.93;;;4.50;;
33696;SDS011;20031;43.416;23.232;2023-05-18T09:46:17;13.82;;;3.97;;
33696;SDS011;20031;43.416;23.232;2023-05-18T09:48:45;18.38;;;4.35;;
33696;SDS011;20031;43.416;23.232;2023-05-18T09:51:13;9.38;;;4.28;;
33696;SDS011;20031;43.416;23.232;2023-05-18T09:53:42;9.55;;;5.35;;
33696;SDS011;20031;43.416;23.232;2023-05-18T09:56:13;17.15;;;7.78;;
33696;SDS011;20031;43.416;23.232;2023-05-18T09:58:41;18.13;;;6.63;;
33696;SDS011;20031;43.416;23.232;2023-05-18T10:01:07;12.80;;;4.47;;
33696;SDS011;20031;43.416;23.232;2023-05-18T10:03:36;10.77;;;3.88;;
33696;SDS011;20031;43.416;23.232;2023-05-18T10:06:09;7.43;;;4.50;;
33696;SDS011;20031;43.416;23.232;2023-05-18T10:08:37;12.93;;;4.30;;
33696;SDS011;20031;43.416;23.232;2023-05-18T10:11:03;12.05;;;4.40;;
33696;SDS011;20031;43.416;23.232;2023-05-18T10:13:30;33.70;;;8.52;;
33696;SDS011;20031;43.416;23.232;2023-05-18T10:15:58;10.48;;;4.68;;
33696;SDS011;20031;43.416;23.232;2023-05-18T10:18:25;9.40;;;4.70;;
33696;SDS011;20031;43.416;23.232;2023-05-18T10:20:53;11.48;;;4.40;;
33696;SDS011;20031;43.416;23.232;2023-05-18T10:23:21;9.15;;;4.40;;
33696;SDS011;20031;43.416;23.232;2023-05-18T10:25:48;11.80;;;5.10;;
33696;SDS011;20031;43.416;23.232;2023-05-18T10:28:25;15.95;;;5.05;;
33696;SDS011;20031;43.416;23.232;2023-05-18T10:31:11;13.20;;;4.77;;
33696;SDS011;20031;43.416;23.232;2023-05-18T10:33:39;10.40;;;4.50;;
33696;SDS011;20031;43.416;23.232;2023-05-18T10:36:05;14.05;;;4.50;;
33696;SDS011;20031;43.416;23.232;2023-05-18T10:38:33;16.35;;;5.05;;
33696;SDS011;20031;43.416;23.232;2023-05-18T10:41:06;14.05;;;5.28;;
33696;SDS011;20031;43.416;23.232;2023-05-18T10:43:32;10.88;;;4.97;;
33696;SDS011;20031;43.416;23.232;2023-05-18T10:46:00;19.45;;;5.13;;
33696;SDS011;20031;43.416;23.232;2023-05-18T10:48:27;13.40;;;5.07;;
33696;SDS011;20031;43.416;23.232;2023-05-18T10:50:54;12.57;;;5.07;;
33696;SDS011;20031;43.416;23.232;2023-05-18T10:53:21;12.88;;;4.78;;
33696;SDS011;20031;43.416;23.232;2023-05-18T10:55:56;9.88;;;4.60;;
33696;SDS011;20031;43.416;23.232;2023-05-18T10:58:22;7.20;;;4.93;;
33696;SDS011;20031;43.416;23.232;2023-05-18T11:00:54;13.27;;;5.30;;
33696;SDS011;20031;43.416;23.232;2023-05-18T11:03:21;17.02;;;5.05;;
33696;SDS011;20031;43.416;23.232;2023-05-18T11:06:01;12.50;;;4.97;;
33696;SDS011;20031;43.416;23.232;2023-05-18T11:08:32;10.48;;;4.95;;
33696;SDS011;20031;43.416;23.232;2023-05-18T11:11:04;11.68;;;5.25;;
33696;SDS011;20031;43.416;23.232;2023-05-18T11:13:32;14.85;;;5.10;;
33696;SDS011;20031;43.416;23.232;2023-05-18T11:26:51;15.82;;;6.70;;
33696;SDS011;20031;43.416;23.232;2023-05-18T11:29:19;26.77;;;8.90;;
33696;SDS011;20031;43.416;23.232;2023-05-18T11:31:51;42.35;;;10.65;;
33696;SDS011;20031;43.416;23.232;2023-05-18T11:34:50;17.52;;;7.15;;
33696;SDS011;20031;43.416;23.232;2023-05-18T11:37:17;15.18;;;6.63;;
33696;SDS011;20031;43.416;23.232;2023-05-18T11:40:49;16.70;;;8.02;;
33696;SDS011;20031;43.416;23.232;2023-05-18T11:43:16;21.65;;;8.07;;
33696;SDS011;20031;43.416;23.232;2023-05-18T11:45:53;15.43;;;7.93;;
33696;SDS011;20031;43.416;23.232;2023-05-18T11:48:23;14.75;;;7.90;;
33696;SDS011;20031;43.416;23.232;2023-05-18T11:50:52;15.10;;;9.05;;
33696;SDS011;20031;43.416;23.232;2023-05-18T11:53:20;14.50;;;8.50;;
33696;SDS011;20031;43.416;23.232;2023-05-18T11:55:47;18.55;;;8.20;;
33696;SDS011;20031;43.416;23.232;2023-05-18T11:58:17;13.38;;;8.32;;
33696;SDS011;20031;43.416;23.232;2023-05-18T12:00:44;23.27;;;8.57;;
33696;SDS011;20031;43.416;23.232;2023-05-18T12:03:11;16.40;;;9.50;;
33696;SDS011;20031;43.416;23.232;2023-05-18T12:05:37;19.23;;;11.02;;
33696;SDS011;20031;43.416;23.232;2023-05-18T12:08:06;18.35;;;11.13;;
33696;SDS011;20031;43.416;23.232;2023-05-18T12:10:33;14.57;;;9.32;;
33696;SDS011;20031;43.416;23.232;2023-05-18T12:13:01;18.38;;;12.15;;
33696;SDS011;20031;43.416;23.232;2023-05-18T12:15:27;22.05;;;12.82;;
33696;SDS011;20031;43.416;23.232;2023-05-18T12:17:53;20.88;;;12.15;;
33696;SDS011;20031;43.416;23.232;2023-05-18T12:20:21;19.75;;;12.70;;
33696;SDS011;20031;43.416;23.232;2023-05-18T12:22:52;20.17;;;12.55;;
33696;SDS011;20031;43.416;23.232;2023-05-18T12:25:19;24.50;;;15.45;;
33696;SDS011;20031;43.416;23.232;2023-05-18T12:27:47;22.73;;;13.38;;
33696;SDS011;20031;43.416;23.232;2023-05-18T12:30:20;21.45;;;13.30;;
33696;SDS011;20031;43.416;23.232;2023-05-18T12:32:48;24.88;;;12.30;;
33696;SDS011;20031;43.416;23.232;2023-05-18T12:35:15;21.88;;;12.27;;
33696;SDS011;20031;43.416;23.232;2023-05-18T12:37:45;26.63;;;15.00;;
33696;SDS011;20031;43.416;23.232;2023-05-18T12:40:12;44.55;;;21.55;;
33696;SDS011;20031;43.416;23.232;2023-05-18T12:42:38;38.50;;;18.48;;
33696;SDS011;20031;43.416;23.232;2023-05-18T12:45:04;39.00;;;19.52;;
33696;SDS011;20031;43.416;23.232;2023-05-18T12:47:31;44.97;;;20.77;;
33696;SDS011;20031;43.416;23.232;2023-05-18T12:50:00;48.55;;;17.17;;
33696;SDS011;20031;43.416;23.232;2023-05-18T12:52:27;26.45;;;13.20;;
33696;SDS011;20031;43.416;23.232;2023-05-18T12:54:53;33.42;;;15.13;;
33696;SDS011;20031;43.416;23.232;2023-05-18T12:57:22;34.20;;;11.75;;
33696;SDS011;20031;43.416;23.232;2023-05-18T12:59:54;23.90;;;9.63;;
33696;SDS011;20031;43.416;23.232;2023-05-18T13:02:27;19.10;;;8.38;;
33696;SDS011;20031;43.416;23.232;2023-05-18T13:05:07;27.13;;;11.90;;
33696;SDS011;20031;43.416;23.232;2023-05-18T13:07:34;34.30;;;15.30;;
33696;SDS011;20031;43.416;23.232;2023-05-18T13:10:04;34.00;;;18.25;;
33696;SDS011;20031;43.416;23.232;2023-05-18T13:12:40;33.33;;;18.50;;
33696;SDS011;20031;43.416;23.232;2023-05-18T13:15:17;21.67;;;14.65;;
33696;SDS011;20031;43.416;23.232;2023-05-18T13:20:29;24.73;;;14.00;;
33696;SDS011;20031;43.416;23.232;2023-05-18T13:23:03;30.92;;;13.45;;
33696;SDS011;20031;43.416;23.232;2023-05-18T13:25:31;22.83;;;13.50;;
33696;SDS011;20031;43.416;23.232;2023-05-18T13:27:57;20.95;;;11.88;;
33696;SDS011;20031;43.416;23.232;2023-05-18T13:30:22;27.45;;;11.98;;
33696;SDS011;20031;43.416;23.232;2023-05-18T13:32:49;17.15;;;11.20;;
33696;SDS011;20031;43.416;23.232;2023-05-18T13:35:16;24.50;;;10.60;;
33696;SDS011;20031;43.416;23.232;2023-05-18T13:37:44;24.05;;;9.60;;
33696;SDS011;20031;43.416;23.232;2023-05-18T13:40:11;19.98;;;9.10;;
33696;SDS011;20031;43.416;23.232;2023-05-18T13:42:38;23.15;;;9.10;;
33696;SDS011;20031;43.416;23.232;2023-05-18T13:45:03;13.10;;;6.40;;
33696;SDS011;20031;43.416;23.232;2023-05-18T13:47:29;11.43;;;6.60;;
33696;SDS011;20031;43.416;23.232;2023-05-18T13:49:55;22.95;;;5.05;;
33696;SDS011;20031;43.416;23.232;2023-05-18T13:52:20;12.70;;;4.28;;
33696;SDS011;20031;43.416;23.232;2023-05-18T13:54:46;18.45;;;4.60;;
33696;SDS011;20031;43.416;23.232;2023-05-18T13:57:12;16.40;;;3.50;;
33696;SDS011;20031;43.416;23.232;2023-05-18T13:59:38;15.73;;;3.78;;
33696;SDS011;20031;43.416;23.232;2023-05-18T14:02:04;9.13;;;3.88;;
33696;SDS011;20031;43.416;23.232;2023-05-18T14:04:30;17.30;;;4.10;;
33696;SDS011;20031;43.416;23.232;2023-05-18T14:06:55;8.65;;;3.45;;
33696;SDS011;20031;43.416;23.232;2023-05-18T14:09:22;23.10;;;3.95;;
33696;SDS011;20031;43.416;23.232;2023-05-18T14:11:48;10.38;;;3.58;;
33696;SDS011;20031;43.416;23.232;2023-05-18T14:14:14;13.50;;;3.50;;
33696;SDS011;20031;43.416;23.232;2023-05-18T14:16:39;11.68;;;3.47;;
33696;SDS011;20031;43.416;23.232;2023-05-18T14:19:05;15.25;;;2.75;;
33696;SDS011;20031;43.416;23.232;2023-05-18T14:21:30;11.80;;;3.15;;
33696;SDS011;20031;43.416;23.232;2023-05-18T14:23:56;9.45;;;2.80;;
33696;SDS011;20031;43.416;23.232;2023-05-18T14:26:21;8.18;;;2.80;;
33696;SDS011;20031;43.416;23.232;2023-05-18T14:28:47;7.80;;;2.90;;
33696;SDS011;20031;43.416;23.232;2023-05-18T14:31:12;16.08;;;3.45;;
33696;SDS011;20031;43.416;23.232;2023-05-18T14:33:38;12.05;;;2.92;;
33696;SDS011;20031;43.416;23.232;2023-05-18T14:36:03;10.38;;;2.40;;
33696;SDS011;20031;43.416;23.232;2023-05-18T14:38:29;8.55;;;2.45;;
33696;SDS011;20031;43.416;23.232;2023-05-18T14:40:54;12.13;;;2.40;;
33696;SDS011;20031;43.416;23.232;2023-05-18T14:43:20;10.40;;;2.35;;
33696;SDS011;20031;43.416;23.232;2023-05-18T14:45:45;11.40;;;2.80;;
33696;SDS011;20031;43.416;23.232;2023-05-18T14:48:11;9.65;;;3.10;;
33696;SDS011;20031;43.416;23.232;2023-05-18T14:50:36;5.25;;;2.47;;
33696;SDS011;20031;43.416;23.232;2023-05-18T14:53:02;8.98;;;2.70;;
33696;SDS011;20031;43.416;23.232;2023-05-18T14:55:27;6.97;;;2.72;;